sensor_id;sensor_type;location;lat;lon;timestamp;P1;durP1;ratioP1;P2;durP2;ratioP2
34234;SDS011;20500;49.856;20.290;2023-02-28T00:00:16;21.70;;;11.10;;
34234;SDS011;20500;49.856;20.290;2023-02-28T00:03:23;21.90;;;10.90;;
34234;SDS011;20500;49.856;20.290;2023-02-28T00:09:34;20.60;;;10.40;;
34234;SDS011;20500;49.856;20.290;2023-02-28T00:12:40;22.00;;;11.30;;
34234;SDS011;20500;49.856;20.290;2023-02-28T00:15:47;24.10;;;11.30;;
34234;SDS011;20500;49.856;20.290;2023-02-28T00:19:02;21.10;;;11.00;;
34234;SDS011;20500;49.856;20.290;2023-02-28T00:22:08;21.70;;;10.50;;
34234;SDS011;20500;49.856;20.290;2023-02-28T00:31:26;19.00;;;10.60;;
34234;SDS011;20500;49.856;20.290;2023-02-28T00:34:32;20.70;;;11.30;;
34234;SDS011;20500;49.856;20.290;2023-02-28T00:37:40;20.70;;;11.10;;
34234;SDS011;20500;49.856;20.290;2023-02-28T00:40:47;23.70;;;10.80;;
34234;SDS011;20500;49.856;20.290;2023-02-28T00:43:53;21.10;;;10.30;;
34234;SDS011;20500;49.856;20.290;2023-02-28T00:50:05;18.80;;;9.80;;
34234;SDS011;20500;49.856;20.290;2023-02-28T00:53:13;20.80;;;10.20;;
34234;SDS011;20500;49.856;20.290;2023-02-28T00:56:19;23.20;;;10.70;;
34234;SDS011;20500;49.856;20.290;2023-02-28T00:59:25;20.80;;;10.50;;
34234;SDS011;20500;49.856;20.290;2023-02-28T01:05:36;20.50;;;10.30;;
34234;SDS011;20500;49.856;20.290;2023-02-28T01:08:44;20.70;;;11.10;;
34234;SDS011;20500;49.856;20.290;2023-02-28T01:14:55;21.30;;;10.40;;
34234;SDS011;20500;49.856;20.290;2023-02-28T01:21:06;22.00;;;10.30;;
34234;SDS011;20500;49.856;20.290;2023-02-28T01:24:13;20.10;;;10.60;;
34234;SDS011;20500;49.856;20.290;2023-02-28T01:30:24;21.40;;;11.50;;
34234;SDS011;20500;49.856;20.290;2023-02-28T01:36:35;20.50;;;10.50;;
34234;SDS011;20500;49.856;20.290;2023-02-28T01:42:46;20.10;;;10.20;;
34234;SDS011;20500;49.856;20.290;2023-02-28T01:48:59;19.20;;;10.90;;
34234;SDS011;20500;49.856;20.290;2023-02-28T01:52:09;24.10;;;12.00;;
34234;SDS011;20500;49.856;20.290;2023-02-28T01:55:21;21.00;;;11.20;;
34234;SDS011;20500;49.856;20.290;2023-02-28T01:58:31;25.10;;;12.20;;
34234;SDS011;20500;49.856;20.290;2023-02-28T02:01:38;23.20;;;13.30;;
34234;SDS011;20500;49.856;20.290;2023-02-28T02:07:54;24.70;;;11.90;;
34234;SDS011;20500;49.856;20.290;2023-02-28T02:11:05;23.40;;;11.90;;
34234;SDS011;20500;49.856;20.290;2023-02-28T02:14:20;24.90;;;11.50;;
34234;SDS011;20500;49.856;20.290;2023-02-28T02:17:38;42.70;;;24.50;;
34234;SDS011;20500;49.856;20.290;2023-02-28T02:21:01;31.10;;;18.50;;
34234;SDS011;20500;49.856;20.290;2023-02-28T02:24:46;27.50;;;17.40;;
34234;SDS011;20500;49.856;20.290;2023-02-28T02:28:18;28.10;;;16.60;;
34234;SDS011;20500;49.856;20.290;2023-02-28T02:35:22;23.80;;;12.40;;
34234;SDS011;20500;49.856;20.290;2023-02-28T02:38:33;23.10;;;13.00;;
34234;SDS011;20500;49.856;20.290;2023-02-28T02:41:45;26.10;;;14.60;;
34234;SDS011;20500;49.856;20.290;2023-02-28T02:44:58;25.20;;;14.20;;
34234;SDS011;20500;49.856;20.290;2023-02-28T02:48:09;27.70;;;13.80;;
34234;SDS011;20500;49.856;20.290;2023-02-28T02:51:20;25.20;;;13.30;;
34234;SDS011;20500;49.856;20.290;2023-02-28T02:54:30;24.60;;;14.20;;
34234;SDS011;20500;49.856;20.290;2023-02-28T02:57:40;23.90;;;12.80;;
34234;SDS011;20500;49.856;20.290;2023-02-28T03:00:51;25.00;;;13.30;;
34234;SDS011;20500;49.856;20.290;2023-02-28T03:04:01;25.00;;;12.70;;
34234;SDS011;20500;49.856;20.290;2023-02-28T03:07:11;23.80;;;12.90;;
34234;SDS011;20500;49.856;20.290;2023-02-28T03:10:29;22.80;;;12.70;;
34234;SDS011;20500;49.856;20.290;2023-02-28T03:13:47;23.70;;;13.00;;
34234;SDS011;20500;49.856;20.290;2023-02-28T03:17:08;24.10;;;13.30;;
34234;SDS011;20500;49.856;20.290;2023-02-28T03:20:30;23.40;;;12.10;;
34234;SDS011;20500;49.856;20.290;2023-02-28T03:23:45;23.90;;;12.60;;
34234;SDS011;20500;49.856;20.290;2023-02-28T03:26:58;23.00;;;13.00;;
34234;SDS011;20500;49.856;20.290;2023-02-28T03:30:09;24.30;;;12.60;;
34234;SDS011;20500;49.856;20.290;2023-02-28T03:33:21;22.40;;;12.40;;
34234;SDS011;20500;49.856;20.290;2023-02-28T03:36:33;22.80;;;12.20;;
34234;SDS011;20500;49.856;20.290;2023-02-28T03:39:47;23.90;;;12.60;;
34234;SDS011;20500;49.856;20.290;2023-02-28T03:42:58;21.80;;;12.60;;
34234;SDS011;20500;49.856;20.290;2023-02-28T03:46:08;24.30;;;12.80;;
34234;SDS011;20500;49.856;20.290;2023-02-28T03:49:18;22.80;;;12.70;;
34234;SDS011;20500;49.856;20.290;2023-02-28T03:52:27;25.00;;;13.10;;
34234;SDS011;20500;49.856;20.290;2023-02-28T03:55:37;22.70;;;13.20;;
34234;SDS011;20500;49.856;20.290;2023-02-28T03:58:49;23.00;;;13.60;;
34234;SDS011;20500;49.856;20.290;2023-02-28T04:01:59;23.80;;;13.80;;
34234;SDS011;20500;49.856;20.290;2023-02-28T04:05:06;24.90;;;13.80;;
34234;SDS011;20500;49.856;20.290;2023-02-28T04:08:13;27.70;;;15.70;;
34234;SDS011;20500;49.856;20.290;2023-02-28T04:11:21;25.60;;;15.20;;
34234;SDS011;20500;49.856;20.290;2023-02-28T04:14:32;29.00;;;15.30;;
34234;SDS011;20500;49.856;20.290;2023-02-28T04:20:43;24.80;;;14.00;;
34234;SDS011;20500;49.856;20.290;2023-02-28T04:23:49;23.50;;;14.30;;
34234;SDS011;20500;49.856;20.290;2023-02-28T04:30:01;27.30;;;14.40;;
34234;SDS011;20500;49.856;20.290;2023-02-28T04:33:08;26.00;;;13.90;;
34234;SDS011;20500;49.856;20.290;2023-02-28T04:39:20;24.60;;;13.80;;
34234;SDS011;20500;49.856;20.290;2023-02-28T04:42:27;28.10;;;15.40;;
34234;SDS011;20500;49.856;20.290;2023-02-28T04:45:38;26.90;;;15.00;;
34234;SDS011;20500;49.856;20.290;2023-02-28T04:48:45;24.80;;;13.80;;
34234;SDS011;20500;49.856;20.290;2023-02-28T04:51:51;27.30;;;15.50;;
34234;SDS011;20500;49.856;20.290;2023-02-28T04:54:58;25.20;;;14.40;;
34234;SDS011;20500;49.856;20.290;2023-02-28T05:01:19;23.30;;;15.10;;
34234;SDS011;20500;49.856;20.290;2023-02-28T05:04:27;26.10;;;15.40;;
34234;SDS011;20500;49.856;20.290;2023-02-28T05:07:37;25.70;;;14.40;;
34234;SDS011;20500;49.856;20.290;2023-02-28T05:10:43;24.10;;;13.90;;
34234;SDS011;20500;49.856;20.290;2023-02-28T05:13:50;22.70;;;12.70;;
34234;SDS011;20500;49.856;20.290;2023-02-28T05:16:57;22.70;;;13.00;;
34234;SDS011;20500;49.856;20.290;2023-02-28T05:20:03;24.20;;;14.00;;
34234;SDS011;20500;49.856;20.290;2023-02-28T05:23:18;28.20;;;16.20;;
34234;SDS011;20500;49.856;20.290;2023-02-28T05:26:26;27.40;;;15.10;;
34234;SDS011;20500;49.856;20.290;2023-02-28T05:29:33;34.40;;;18.10;;
34234;SDS011;20500;49.856;20.290;2023-02-28T05:32:49;27.20;;;15.30;;
34234;SDS011;20500;49.856;20.290;2023-02-28T05:35:55;28.60;;;16.20;;
34234;SDS011;20500;49.856;20.290;2023-02-28T05:39:02;28.70;;;16.20;;
34234;SDS011;20500;49.856;20.290;2023-02-28T05:42:09;27.20;;;15.10;;
34234;SDS011;20500;49.856;20.290;2023-02-28T05:48:20;24.80;;;14.00;;
34234;SDS011;20500;49.856;20.290;2023-02-28T05:54:31;28.60;;;13.40;;
34234;SDS011;20500;49.856;20.290;2023-02-28T05:57:37;26.70;;;14.60;;
34234;SDS011;20500;49.856;20.290;2023-02-28T06:03:48;23.70;;;13.50;;
34234;SDS011;20500;49.856;20.290;2023-02-28T06:06:55;22.30;;;11.90;;
34234;SDS011;20500;49.856;20.290;2023-02-28T06:10:01;24.20;;;13.70;;
34234;SDS011;20500;49.856;20.290;2023-02-28T06:13:08;23.30;;;13.30;;
34234;SDS011;20500;49.856;20.290;2023-02-28T06:16:14;24.20;;;14.60;;
34234;SDS011;20500;49.856;20.290;2023-02-28T06:22:25;23.80;;;13.40;;
34234;SDS011;20500;49.856;20.290;2023-02-28T06:28:36;30.30;;;17.00;;
34234;SDS011;20500;49.856;20.290;2023-02-28T06:31:43;30.70;;;17.60;;
34234;SDS011;20500;49.856;20.290;2023-02-28T06:34:50;29.30;;;15.30;;
34234;SDS011;20500;49.856;20.290;2023-02-28T06:37:56;25.30;;;15.20;;
34234;SDS011;20500;49.856;20.290;2023-02-28T06:41:03;27.90;;;16.20;;
34234;SDS011;20500;49.856;20.290;2023-02-28T06:44:12;28.50;;;16.60;;
34234;SDS011;20500;49.856;20.290;2023-02-28T06:47:20;34.20;;;20.50;;
34234;SDS011;20500;49.856;20.290;2023-02-28T06:56:37;34.40;;;20.20;;
34234;SDS011;20500;49.856;20.290;2023-02-28T06:59:43;34.30;;;20.10;;
34234;SDS011;20500;49.856;20.290;2023-02-28T07:05:56;41.20;;;20.50;;
34234;SDS011;20500;49.856;20.290;2023-02-28T07:12:08;34.90;;;19.40;;
34234;SDS011;20500;49.856;20.290;2023-02-28T07:18:19;51.50;;;29.70;;
34234;SDS011;20500;49.856;20.290;2023-02-28T07:21:25;41.80;;;26.00;;
34234;SDS011;20500;49.856;20.290;2023-02-28T07:24:32;41.80;;;27.40;;
34234;SDS011;20500;49.856;20.290;2023-02-28T07:27:38;45.60;;;29.80;;
34234;SDS011;20500;49.856;20.290;2023-02-28T07:30:44;43.30;;;27.50;;
34234;SDS011;20500;49.856;20.290;2023-02-28T07:33:51;42.40;;;25.90;;
34234;SDS011;20500;49.856;20.290;2023-02-28T07:36:59;32.40;;;19.70;;
34234;SDS011;20500;49.856;20.290;2023-02-28T07:40:09;28.80;;;19.40;;
34234;SDS011;20500;49.856;20.290;2023-02-28T07:43:17;34.50;;;17.70;;
34234;SDS011;20500;49.856;20.290;2023-02-28T07:46:23;26.10;;;16.40;;
34234;SDS011;20500;49.856;20.290;2023-02-28T07:49:32;14.80;;;7.80;;
34234;SDS011;20500;49.856;20.290;2023-02-28T07:52:39;14.50;;;7.30;;
34234;SDS011;20500;49.856;20.290;2023-02-28T07:55:45;14.10;;;6.70;;
34234;SDS011;20500;49.856;20.290;2023-02-28T07:58:52;13.60;;;6.30;;
34234;SDS011;20500;49.856;20.290;2023-02-28T08:05:03;14.40;;;7.30;;
34234;SDS011;20500;49.856;20.290;2023-02-28T08:08:11;16.80;;;8.10;;
34234;SDS011;20500;49.856;20.290;2023-02-28T08:11:17;15.60;;;7.50;;
34234;SDS011;20500;49.856;20.290;2023-02-28T08:14:24;13.20;;;6.30;;
34234;SDS011;20500;49.856;20.290;2023-02-28T08:20:37;11.60;;;5.20;;
34234;SDS011;20500;49.856;20.290;2023-02-28T08:26:48;13.80;;;6.10;;
34234;SDS011;20500;49.856;20.290;2023-02-28T08:32:59;12.60;;;5.30;;
34234;SDS011;20500;49.856;20.290;2023-02-28T08:36:06;13.20;;;5.90;;
34234;SDS011;20500;49.856;20.290;2023-02-28T08:39:13;13.30;;;5.90;;
34234;SDS011;20500;49.856;20.290;2023-02-28T08:42:19;13.30;;;6.40;;
34234;SDS011;20500;49.856;20.290;2023-02-28T08:45:26;11.20;;;5.40;;
34234;SDS011;20500;49.856;20.290;2023-02-28T08:48:34;12.90;;;6.30;;
34234;SDS011;20500;49.856;20.290;2023-02-28T08:51:41;12.70;;;5.50;;
34234;SDS011;20500;49.856;20.290;2023-02-28T08:57:52;11.20;;;4.90;;
34234;SDS011;20500;49.856;20.290;2023-02-28T09:04:03;14.20;;;6.20;;
34234;SDS011;20500;49.856;20.290;2023-02-28T09:07:11;12.50;;;5.80;;
34234;SDS011;20500;49.856;20.290;2023-02-28T09:13:22;17.80;;;9.70;;
34234;SDS011;20500;49.856;20.290;2023-02-28T09:16:29;13.50;;;6.60;;
34234;SDS011;20500;49.856;20.290;2023-02-28T09:19:36;13.70;;;6.80;;
34234;SDS011;20500;49.856;20.290;2023-02-28T09:25:48;14.20;;;6.90;;
34234;SDS011;20500;49.856;20.290;2023-02-28T09:28:56;13.80;;;6.70;;
34234;SDS011;20500;49.856;20.290;2023-02-28T09:32:03;15.00;;;6.50;;
34234;SDS011;20500;49.856;20.290;2023-02-28T09:35:10;13.20;;;6.10;;
34234;SDS011;20500;49.856;20.290;2023-02-28T09:38:19;14.60;;;6.30;;
34234;SDS011;20500;49.856;20.290;2023-02-28T09:44:34;14.40;;;6.60;;
34234;SDS011;20500;49.856;20.290;2023-02-28T09:47:46;13.30;;;6.00;;
34234;SDS011;20500;49.856;20.290;2023-02-28T09:50:56;13.20;;;6.20;;
34234;SDS011;20500;49.856;20.290;2023-02-28T09:54:08;13.00;;;6.20;;
34234;SDS011;20500;49.856;20.290;2023-02-28T09:57:24;12.70;;;5.70;;
34234;SDS011;20500;49.856;20.290;2023-02-28T10:00:36;13.10;;;6.60;;
34234;SDS011;20500;49.856;20.290;2023-02-28T10:03:47;13.20;;;6.10;;
34234;SDS011;20500;49.856;20.290;2023-02-28T10:07:01;13.50;;;6.40;;
34234;SDS011;20500;49.856;20.290;2023-02-28T10:10:21;12.60;;;6.00;;
34234;SDS011;20500;49.856;20.290;2023-02-28T10:13:33;13.90;;;6.50;;
34234;SDS011;20500;49.856;20.290;2023-02-28T10:16:43;13.30;;;6.40;;
34234;SDS011;20500;49.856;20.290;2023-02-28T10:19:58;13.40;;;6.10;;
34234;SDS011;20500;49.856;20.290;2023-02-28T10:23:12;14.30;;;6.30;;
34234;SDS011;20500;49.856;20.290;2023-02-28T10:26:25;12.90;;;6.50;;
34234;SDS011;20500;49.856;20.290;2023-02-28T10:29:33;13.00;;;6.80;;
34234;SDS011;20500;49.856;20.290;2023-02-28T10:35:46;12.70;;;6.20;;
34234;SDS011;20500;49.856;20.290;2023-02-28T10:38:53;15.20;;;6.50;;
34234;SDS011;20500;49.856;20.290;2023-02-28T10:41:59;12.80;;;6.10;;
34234;SDS011;20500;49.856;20.290;2023-02-28T10:45:11;13.80;;;7.20;;
34234;SDS011;20500;49.856;20.290;2023-02-28T10:48:27;13.80;;;6.80;;
34234;SDS011;20500;49.856;20.290;2023-02-28T10:51:38;13.90;;;6.80;;
34234;SDS011;20500;49.856;20.290;2023-02-28T10:54:45;12.80;;;6.80;;
34234;SDS011;20500;49.856;20.290;2023-02-28T10:57:51;12.40;;;7.00;;
34234;SDS011;20500;49.856;20.290;2023-02-28T11:00:58;13.80;;;7.10;;
34234;SDS011;20500;49.856;20.290;2023-02-28T11:04:05;13.60;;;7.60;;
34234;SDS011;20500;49.856;20.290;2023-02-28T11:07:25;14.50;;;7.70;;
34234;SDS011;20500;49.856;20.290;2023-02-28T11:10:45;14.60;;;8.00;;
34234;SDS011;20500;49.856;20.290;2023-02-28T11:13:53;15.90;;;8.90;;
34234;SDS011;20500;49.856;20.290;2023-02-28T11:17:03;14.10;;;7.70;;
34234;SDS011;20500;49.856;20.290;2023-02-28T11:23:28;17.70;;;10.20;;
34234;SDS011;20500;49.856;20.290;2023-02-28T11:26:40;16.10;;;8.70;;
34234;SDS011;20500;49.856;20.290;2023-02-28T11:29:48;16.70;;;9.60;;
34234;SDS011;20500;49.856;20.290;2023-02-28T11:32:55;16.80;;;9.30;;
34234;SDS011;20500;49.856;20.290;2023-02-28T11:36:03;18.70;;;10.90;;
34234;SDS011;20500;49.856;20.290;2023-02-28T11:39:16;18.50;;;10.60;;
34234;SDS011;20500;49.856;20.290;2023-02-28T11:46:09;20.30;;;11.40;;
34234;SDS011;20500;49.856;20.290;2023-02-28T11:49:28;17.30;;;10.30;;
34234;SDS011;20500;49.856;20.290;2023-02-28T11:52:42;17.50;;;10.30;;
34234;SDS011;20500;49.856;20.290;2023-02-28T11:55:57;17.80;;;10.80;;
34234;SDS011;20500;49.856;20.290;2023-02-28T11:59:17;18.40;;;11.40;;
34234;SDS011;20500;49.856;20.290;2023-02-28T12:02:35;15.40;;;9.70;;
34234;SDS011;20500;49.856;20.290;2023-02-28T12:05:52;18.50;;;11.30;;
34234;SDS011;20500;49.856;20.290;2023-02-28T12:09:08;17.30;;;9.60;;
34234;SDS011;20500;49.856;20.290;2023-02-28T12:12:28;16.90;;;10.30;;
34234;SDS011;20500;49.856;20.290;2023-02-28T12:15:45;16.70;;;9.60;;
34234;SDS011;20500;49.856;20.290;2023-02-28T12:19:20;17.50;;;10.40;;
34234;SDS011;20500;49.856;20.290;2023-02-28T12:22:29;15.90;;;9.10;;
34234;SDS011;20500;49.856;20.290;2023-02-28T12:25:46;15.30;;;8.80;;
34234;SDS011;20500;49.856;20.290;2023-02-28T12:29:04;15.20;;;9.20;;
34234;SDS011;20500;49.856;20.290;2023-02-28T12:32:18;15.50;;;9.50;;
34234;SDS011;20500;49.856;20.290;2023-02-28T12:35:27;18.50;;;9.40;;
34234;SDS011;20500;49.856;20.290;2023-02-28T12:38:41;15.80;;;9.70;;
34234;SDS011;20500;49.856;20.290;2023-02-28T12:41:52;15.00;;;8.80;;
34234;SDS011;20500;49.856;20.290;2023-02-28T12:45:04;15.60;;;8.80;;
34234;SDS011;20500;49.856;20.290;2023-02-28T12:48:18;15.60;;;9.20;;
34234;SDS011;20500;49.856;20.290;2023-02-28T12:51:30;16.10;;;9.10;;
34234;SDS011;20500;49.856;20.290;2023-02-28T12:54:40;14.70;;;8.20;;
34234;SDS011;20500;49.856;20.290;2023-02-28T12:57:56;14.50;;;8.60;;
34234;SDS011;20500;49.856;20.290;2023-02-28T13:01:10;14.60;;;8.50;;
34234;SDS011;20500;49.856;20.290;2023-02-28T13:04:43;14.80;;;8.40;;
34234;SDS011;20500;49.856;20.290;2023-02-28T13:08:10;15.10;;;8.70;;
34234;SDS011;20500;49.856;20.290;2023-02-28T13:11:38;13.80;;;7.70;;
34234;SDS011;20500;49.856;20.290;2023-02-28T13:14:46;13.00;;;7.20;;
34234;SDS011;20500;49.856;20.290;2023-02-28T13:17:54;14.40;;;8.50;;
34234;SDS011;20500;49.856;20.290;2023-02-28T13:21:02;15.50;;;8.80;;
34234;SDS011;20500;49.856;20.290;2023-02-28T13:24:11;14.30;;;8.10;;
34234;SDS011;20500;49.856;20.290;2023-02-28T13:27:38;13.60;;;8.00;;
34234;SDS011;20500;49.856;20.290;2023-02-28T13:31:05;13.80;;;7.70;;
34234;SDS011;20500;49.856;20.290;2023-02-28T13:34:16;15.10;;;7.80;;
34234;SDS011;20500;49.856;20.290;2023-02-28T13:37:35;13.90;;;7.50;;
34234;SDS011;20500;49.856;20.290;2023-02-28T13:40:46;15.30;;;8.10;;
34234;SDS011;20500;49.856;20.290;2023-02-28T13:47:23;14.20;;;8.30;;
34234;SDS011;20500;49.856;20.290;2023-02-28T13:50:33;14.60;;;8.20;;
34234;SDS011;20500;49.856;20.290;2023-02-28T13:53:51;15.80;;;8.00;;
34234;SDS011;20500;49.856;20.290;2023-02-28T13:57:11;13.30;;;7.60;;
34234;SDS011;20500;49.856;20.290;2023-02-28T14:00:37;13.40;;;7.10;;
34234;SDS011;20500;49.856;20.290;2023-02-28T14:04:05;13.10;;;7.10;;
34234;SDS011;20500;49.856;20.290;2023-02-28T14:07:24;13.00;;;7.30;;
34234;SDS011;20500;49.856;20.290;2023-02-28T14:10:39;14.70;;;7.90;;
34234;SDS011;20500;49.856;20.290;2023-02-28T14:13:49;13.70;;;7.80;;
34234;SDS011;20500;49.856;20.290;2023-02-28T14:16:55;16.00;;;8.40;;
34234;SDS011;20500;49.856;20.290;2023-02-28T14:20:04;14.20;;;7.90;;
34234;SDS011;20500;49.856;20.290;2023-02-28T14:23:20;14.50;;;8.00;;
34234;SDS011;20500;49.856;20.290;2023-02-28T14:26:46;14.70;;;8.00;;
34234;SDS011;20500;49.856;20.290;2023-02-28T14:30:08;16.60;;;8.50;;
34234;SDS011;20500;49.856;20.290;2023-02-28T14:33:26;13.40;;;7.20;;
34234;SDS011;20500;49.856;20.290;2023-02-28T14:36:42;14.90;;;8.40;;
34234;SDS011;20500;49.856;20.290;2023-02-28T14:39:49;15.80;;;9.30;;
34234;SDS011;20500;49.856;20.290;2023-02-28T14:42:56;15.40;;;9.40;;
34234;SDS011;20500;49.856;20.290;2023-02-28T14:46:04;15.50;;;9.50;;
34234;SDS011;20500;49.856;20.290;2023-02-28T14:49:16;17.50;;;10.10;;
34234;SDS011;20500;49.856;20.290;2023-02-28T14:52:25;17.20;;;8.90;;
34234;SDS011;20500;49.856;20.290;2023-02-28T14:55:35;16.20;;;9.40;;
34234;SDS011;20500;49.856;20.290;2023-02-28T14:58:41;15.00;;;8.50;;
34234;SDS011;20500;49.856;20.290;2023-02-28T15:02:20;14.00;;;8.50;;
34234;SDS011;20500;49.856;20.290;2023-02-28T15:05:28;14.70;;;8.50;;
34234;SDS011;20500;49.856;20.290;2023-02-28T15:08:36;17.00;;;10.20;;
34234;SDS011;20500;49.856;20.290;2023-02-28T15:11:44;18.60;;;10.60;;
34234;SDS011;20500;49.856;20.290;2023-02-28T15:14:54;15.30;;;9.60;;
34234;SDS011;20500;49.856;20.290;2023-02-28T15:21:08;17.20;;;9.30;;
34234;SDS011;20500;49.856;20.290;2023-02-28T15:24:30;19.00;;;10.70;;
34234;SDS011;20500;49.856;20.290;2023-02-28T15:27:42;16.50;;;10.10;;
34234;SDS011;20500;49.856;20.290;2023-02-28T15:30:52;15.90;;;9.30;;
34234;SDS011;20500;49.856;20.290;2023-02-28T15:34:02;18.10;;;10.40;;
34234;SDS011;20500;49.856;20.290;2023-02-28T15:37:32;18.10;;;11.00;;
34234;SDS011;20500;49.856;20.290;2023-02-28T15:40:44;20.30;;;12.00;;
34234;SDS011;20500;49.856;20.290;2023-02-28T15:44:16;18.70;;;10.20;;
34234;SDS011;20500;49.856;20.290;2023-02-28T15:47:29;17.80;;;10.80;;
34234;SDS011;20500;49.856;20.290;2023-02-28T15:50:36;18.70;;;10.40;;
34234;SDS011;20500;49.856;20.290;2023-02-28T15:53:45;18.20;;;9.50;;
34234;SDS011;20500;49.856;20.290;2023-02-28T15:56:57;18.90;;;11.10;;
34234;SDS011;20500;49.856;20.290;2023-02-28T16:00:08;19.40;;;11.60;;
34234;SDS011;20500;49.856;20.290;2023-02-28T16:03:24;18.90;;;10.90;;
34234;SDS011;20500;49.856;20.290;2023-02-28T16:06:40;18.80;;;9.90;;
34234;SDS011;20500;49.856;20.290;2023-02-28T16:09:47;17.30;;;9.80;;
34234;SDS011;20500;49.856;20.290;2023-02-28T16:12:54;18.40;;;10.60;;
34234;SDS011;20500;49.856;20.290;2023-02-28T16:16:01;17.40;;;10.00;;
34234;SDS011;20500;49.856;20.290;2023-02-28T16:19:08;17.10;;;10.20;;
34234;SDS011;20500;49.856;20.290;2023-02-28T16:22:14;18.60;;;11.20;;
34234;SDS011;20500;49.856;20.290;2023-02-28T16:25:22;19.70;;;11.40;;
34234;SDS011;20500;49.856;20.290;2023-02-28T16:28:34;20.30;;;11.20;;
34234;SDS011;20500;49.856;20.290;2023-02-28T16:31:42;22.60;;;12.30;;
34234;SDS011;20500;49.856;20.290;2023-02-28T16:34:48;21.90;;;12.80;;
34234;SDS011;20500;49.856;20.290;2023-02-28T16:40:59;21.30;;;11.90;;
34234;SDS011;20500;49.856;20.290;2023-02-28T16:44:06;20.90;;;12.20;;
34234;SDS011;20500;49.856;20.290;2023-02-28T16:47:17;23.00;;;12.50;;
34234;SDS011;20500;49.856;20.290;2023-02-28T16:53:28;22.80;;;11.90;;
34234;SDS011;20500;49.856;20.290;2023-02-28T16:56:35;21.30;;;13.00;;
34234;SDS011;20500;49.856;20.290;2023-02-28T16:59:43;20.10;;;12.00;;
34234;SDS011;20500;49.856;20.290;2023-02-28T17:05:55;21.20;;;11.50;;
34234;SDS011;20500;49.856;20.290;2023-02-28T17:12:06;25.40;;;13.80;;
34234;SDS011;20500;49.856;20.290;2023-02-28T17:15:14;22.50;;;12.90;;
34234;SDS011;20500;49.856;20.290;2023-02-28T17:18:22;22.90;;;14.40;;
34234;SDS011;20500;49.856;20.290;2023-02-28T17:21:29;23.90;;;14.10;;
34234;SDS011;20500;49.856;20.290;2023-02-28T17:24:37;23.50;;;15.20;;
34234;SDS011;20500;49.856;20.290;2023-02-28T17:30:48;22.70;;;12.00;;
34234;SDS011;20500;49.856;20.290;2023-02-28T17:33:54;24.50;;;14.00;;
34234;SDS011;20500;49.856;20.290;2023-02-28T17:37:01;29.90;;;18.90;;
34234;SDS011;20500;49.856;20.290;2023-02-28T17:43:17;32.20;;;18.30;;
34234;SDS011;20500;49.856;20.290;2023-02-28T17:49:28;28.70;;;15.00;;
34234;SDS011;20500;49.856;20.290;2023-02-28T17:52:36;23.00;;;12.90;;
34234;SDS011;20500;49.856;20.290;2023-02-28T17:58:46;22.50;;;13.10;;
34234;SDS011;20500;49.856;20.290;2023-02-28T18:01:53;20.90;;;13.30;;
34234;SDS011;20500;49.856;20.290;2023-02-28T18:08:07;21.40;;;11.80;;
34234;SDS011;20500;49.856;20.290;2023-02-28T18:11:15;25.10;;;14.80;;
34234;SDS011;20500;49.856;20.290;2023-02-28T18:17:28;25.50;;;15.60;;
34234;SDS011;20500;49.856;20.290;2023-02-28T18:23:39;40.40;;;22.00;;
34234;SDS011;20500;49.856;20.290;2023-02-28T18:26:50;36.10;;;21.30;;
34234;SDS011;20500;49.856;20.290;2023-02-28T18:29:56;32.00;;;19.40;;
34234;SDS011;20500;49.856;20.290;2023-02-28T18:33:03;32.40;;;20.40;;
34234;SDS011;20500;49.856;20.290;2023-02-28T18:36:11;31.20;;;19.80;;
34234;SDS011;20500;49.856;20.290;2023-02-28T18:39:18;32.00;;;20.60;;
34234;SDS011;20500;49.856;20.290;2023-02-28T18:42:24;24.20;;;16.20;;
34234;SDS011;20500;49.856;20.290;2023-02-28T18:45:30;24.90;;;16.70;;
34234;SDS011;20500;49.856;20.290;2023-02-28T18:48:38;25.80;;;16.90;;
34234;SDS011;20500;49.856;20.290;2023-02-28T18:51:44;25.90;;;16.20;;
34234;SDS011;20500;49.856;20.290;2023-02-28T18:57:55;30.10;;;17.80;;
34234;SDS011;20500;49.856;20.290;2023-02-28T19:01:02;27.30;;;17.30;;
34234;SDS011;20500;49.856;20.290;2023-02-28T19:04:17;26.60;;;17.20;;
34234;SDS011;20500;49.856;20.290;2023-02-28T19:10:28;26.00;;;17.10;;
34234;SDS011;20500;49.856;20.290;2023-02-28T19:13:34;26.50;;;16.80;;
34234;SDS011;20500;49.856;20.290;2023-02-28T19:16:41;26.90;;;16.50;;
34234;SDS011;20500;49.856;20.290;2023-02-28T19:19:49;27.20;;;16.20;;
34234;SDS011;20500;49.856;20.290;2023-02-28T19:26:05;29.50;;;18.30;;
34234;SDS011;20500;49.856;20.290;2023-02-28T19:29:12;29.60;;;17.30;;
34234;SDS011;20500;49.856;20.290;2023-02-28T19:35:24;25.40;;;15.90;;
34234;SDS011;20500;49.856;20.290;2023-02-28T19:41:34;26.90;;;16.10;;
34234;SDS011;20500;49.856;20.290;2023-02-28T19:44:41;28.30;;;17.50;;
34234;SDS011;20500;49.856;20.290;2023-02-28T19:47:48;28.60;;;17.60;;
34234;SDS011;20500;49.856;20.290;2023-02-28T19:54:01;30.80;;;18.50;;
34234;SDS011;20500;49.856;20.290;2023-02-28T19:57:08;30.10;;;18.70;;
34234;SDS011;20500;49.856;20.290;2023-02-28T20:03:21;31.40;;;19.40;;
34234;SDS011;20500;49.856;20.290;2023-02-28T20:06:27;33.20;;;20.00;;
34234;SDS011;20500;49.856;20.290;2023-02-28T20:09:36;33.20;;;19.60;;
34234;SDS011;20500;49.856;20.290;2023-02-28T20:12:42;29.70;;;18.10;;
34234;SDS011;20500;49.856;20.290;2023-02-28T20:18:53;35.50;;;21.70;;
34234;SDS011;20500;49.856;20.290;2023-02-28T20:21:59;32.30;;;19.60;;
34234;SDS011;20500;49.856;20.290;2023-02-28T20:25:06;31.70;;;20.10;;
34234;SDS011;20500;49.856;20.290;2023-02-28T20:28:14;35.00;;;20.00;;
34234;SDS011;20500;49.856;20.290;2023-02-28T20:31:22;33.40;;;20.20;;
34234;SDS011;20500;49.856;20.290;2023-02-28T20:34:28;30.80;;;19.10;;
34234;SDS011;20500;49.856;20.290;2023-02-28T20:40:39;37.90;;;22.60;;
34234;SDS011;20500;49.856;20.290;2023-02-28T20:46:50;39.40;;;24.20;;
34234;SDS011;20500;49.856;20.290;2023-02-28T20:49:56;45.60;;;25.80;;
34234;SDS011;20500;49.856;20.290;2023-02-28T20:56:09;48.00;;;30.00;;
34234;SDS011;20500;49.856;20.290;2023-02-28T20:59:18;46.90;;;28.70;;
34234;SDS011;20500;49.856;20.290;2023-02-28T21:05:28;41.90;;;26.40;;
34234;SDS011;20500;49.856;20.290;2023-02-28T21:08:35;44.90;;;27.10;;
34234;SDS011;20500;49.856;20.290;2023-02-28T21:11:42;42.50;;;25.80;;
34234;SDS011;20500;49.856;20.290;2023-02-28T21:14:49;38.80;;;25.00;;
34234;SDS011;20500;49.856;20.290;2023-02-28T21:17:56;39.30;;;25.60;;
34234;SDS011;20500;49.856;20.290;2023-02-28T21:21:03;37.80;;;24.00;;
34234;SDS011;20500;49.856;20.290;2023-02-28T21:24:10;39.00;;;23.90;;
34234;SDS011;20500;49.856;20.290;2023-02-28T21:27:17;41.90;;;27.90;;
34234;SDS011;20500;49.856;20.290;2023-02-28T21:30:23;42.40;;;26.70;;
34234;SDS011;20500;49.856;20.290;2023-02-28T21:33:30;48.30;;;28.50;;
34234;SDS011;20500;49.856;20.290;2023-02-28T21:36:38;49.40;;;31.80;;
34234;SDS011;20500;49.856;20.290;2023-02-28T21:39:47;53.80;;;33.10;;